sensor_id;sensor_type;location;lat;lon;timestamp;pressure;altitude;pressure_sealevel;temperature;humidity
21623;BME280;10973;46.706;12.340;2023-02-28T00:01:49;87331.16;;;-0.66;49.92
21623;BME280;10973;46.706;12.340;2023-02-28T00:04:16;87332.50;;;-0.60;50.00
21623;BME280;10973;46.706;12.340;2023-02-28T00:06:44;87335.72;;;-0.63;50.16
21623;BME280;10973;46.706;12.340;2023-02-28T00:09:11;87342.41;;;-0.62;50.06
21623;BME280;10973;46.706;12.340;2023-02-28T00:11:38;87336.59;;;-0.59;50.20
21623;BME280;10973;46.706;12.340;2023-02-28T00:14:05;87327.78;;;-0.58;50.00
21623;BME280;10973;46.706;12.340;2023-02-28T00:16:32;87333.28;;;-0.59;50.17
21623;BME280;10973;46.706;12.340;2023-02-28T00:19:00;87335.56;;;-0.58;49.98
21623;BME280;10973;46.706;12.340;2023-02-28T00:21:27;87331.44;;;-0.59;49.86
21623;BME280;10973;46.706;12.340;2023-02-28T00:23:55;87341.19;;;-0.56;50.28
21623;BME280;10973;46.706;12.340;2023-02-28T00:26:22;87345.28;;;-0.63;50.43
21623;BME280;10973;46.706;12.340;2023-02-28T00:28:52;87342.09;;;-0.69;50.60
21623;BME280;10973;46.706;12.340;2023-02-28T00:31:19;87341.19;;;-0.82;51.02
21623;BME280;10973;46.706;12.340;2023-02-28T00:33:46;87345.16;;;-0.84;50.80
21623;BME280;10973;46.706;12.340;2023-02-28T00:36:14;87340.28;;;-0.77;51.13
21623;BME280;10973;46.706;12.340;2023-02-28T00:38:41;87344.69;;;-0.86;50.88
21623;BME280;10973;46.706;12.340;2023-02-28T00:41:09;87346.53;;;-0.78;51.23
21623;BME280;10973;46.706;12.340;2023-02-28T00:43:38;87343.50;;;-0.80;51.16
21623;BME280;10973;46.706;12.340;2023-02-28T00:46:07;87349.72;;;-0.90;51.20
21623;BME280;10973;46.706;12.340;2023-02-28T00:48:34;87347.28;;;-0.95;51.36
21623;BME280;10973;46.706;12.340;2023-02-28T00:51:02;87346.81;;;-0.88;51.29
21623;BME280;10973;46.706;12.340;2023-02-28T00:53:29;87350.63;;;-0.94;51.27
21623;BME280;10973;46.706;12.340;2023-02-28T00:55:57;87344.84;;;-0.91;51.16
21623;BME280;10973;46.706;12.340;2023-02-28T00:58:24;87344.53;;;-0.98;51.15
21623;BME280;10973;46.706;12.340;2023-02-28T01:00:52;87346.81;;;-0.97;51.13
21623;BME280;10973;46.706;12.340;2023-02-28T01:03:21;87349.25;;;-0.92;51.21
21623;BME280;10973;46.706;12.340;2023-02-28T01:05:48;87354.13;;;-1.07;51.46
21623;BME280;10973;46.706;12.340;2023-02-28T01:08:16;87348.31;;;-1.13;51.40
21623;BME280;10973;46.706;12.340;2023-02-28T01:10:43;87351.81;;;-1.09;51.46
21623;BME280;10973;46.706;12.340;2023-02-28T01:13:12;87350.91;;;-1.13;51.27
21623;BME280;10973;46.706;12.340;2023-02-28T01:15:46;87346.66;;;-1.17;51.39
21623;BME280;10973;46.706;12.340;2023-02-28T01:18:16;87356.06;;;-1.21;51.47
21623;BME280;10973;46.706;12.340;2023-02-28T01:20:43;87351.81;;;-1.17;51.41
21623;BME280;10973;46.706;12.340;2023-02-28T01:23:11;87350.44;;;-1.32;51.79
21623;BME280;10973;46.706;12.340;2023-02-28T01:25:38;87353.19;;;-1.20;51.27
21623;BME280;10973;46.706;12.340;2023-02-28T01:28:06;87352.13;;;-1.27;51.72
21623;BME280;10973;46.706;12.340;2023-02-28T01:30:33;87353.75;;;-1.31;51.52
21623;BME280;10973;46.706;12.340;2023-02-28T01:33:01;87354.25;;;-1.21;51.54
21623;BME280;10973;46.706;12.340;2023-02-28T01:35:32;87354.72;;;-1.10;51.78
21623;BME280;10973;46.706;12.340;2023-02-28T01:38:00;87359.44;;;-1.04;51.52
21623;BME280;10973;46.706;12.340;2023-02-28T01:40:47;87354.13;;;-0.99;51.35
21623;BME280;10973;46.706;12.340;2023-02-28T01:46:11;87353.34;;;-0.99;51.36
21623;BME280;10973;46.706;12.340;2023-02-28T01:49:03;87350.94;;;-0.96;51.02
21623;BME280;10973;46.706;12.340;2023-02-28T01:54:09;87367.19;;;-0.95;50.35
21623;BME280;10973;46.706;12.340;2023-02-28T01:56:37;87360.81;;;-0.98;50.25
21623;BME280;10973;46.706;12.340;2023-02-28T01:59:05;87360.50;;;-0.96;50.26
21623;BME280;10973;46.706;12.340;2023-02-28T02:01:32;87358.06;;;-1.01;50.39
21623;BME280;10973;46.706;12.340;2023-02-28T02:04:03;87362.78;;;-1.03;50.26
21623;BME280;10973;46.706;12.340;2023-02-28T02:06:43;87366.16;;;-1.03;50.47
21623;BME280;10973;46.706;12.340;2023-02-28T02:09:12;87363.09;;;-1.05;50.33
21623;BME280;10973;46.706;12.340;2023-02-28T02:11:43;87362.03;;;-1.04;50.01
21623;BME280;10973;46.706;12.340;2023-02-28T02:17:35;87363.06;;;-1.13;50.88
21623;BME280;10973;46.706;12.340;2023-02-28T02:29:42;87363.06;;;-1.13;51.12
21623;BME280;10973;46.706;12.340;2023-02-28T02:44:14;87381.47;;;-1.15;50.37
21623;BME280;10973;46.706;12.340;2023-02-28T02:46:45;87382.25;;;-1.14;50.40
21623;BME280;10973;46.706;12.340;2023-02-28T02:49:28;87377.84;;;-1.14;50.18
21623;BME280;10973;46.706;12.340;2023-02-28T02:52:04;87381.78;;;-1.16;49.90
21623;BME280;10973;46.706;12.340;2023-02-28T02:54:37;87385.41;;;-1.17;49.98
21623;BME280;10973;46.706;12.340;2023-02-28T02:57:52;87381.34;;;-1.18;50.02
21623;BME280;10973;46.706;12.340;2023-02-28T03:00:23;87391.50;;;-1.22;49.97
21623;BME280;10973;46.706;12.340;2023-02-28T03:02:54;87391.03;;;-1.24;50.06
21623;BME280;10973;46.706;12.340;2023-02-28T03:05:27;87387.22;;;-1.26;49.85
21623;BME280;10973;46.706;12.340;2023-02-28T03:07:57;87388.31;;;-1.27;50.03
21623;BME280;10973;46.706;12.340;2023-02-28T03:10:44;87392.38;;;-1.35;50.33
21623;BME280;10973;46.706;12.340;2023-02-28T03:25:39;87389.00;;;-1.44;50.35
21623;BME280;10973;46.706;12.340;2023-02-28T03:31:15;87396.59;;;-1.48;50.42
21623;BME280;10973;46.706;12.340;2023-02-28T03:36:19;87399.81;;;-1.42;50.57
21623;BME280;10973;46.706;12.340;2023-02-28T03:38:55;87393.59;;;-1.41;51.01
21623;BME280;10973;46.706;12.340;2023-02-28T03:41:36;87397.81;;;-1.45;50.90
21623;BME280;10973;46.706;12.340;2023-02-28T03:44:30;87398.88;;;-1.46;50.27
21623;BME280;10973;46.706;12.340;2023-02-28T03:48:15;87408.47;;;-1.47;50.58
21623;BME280;10973;46.706;12.340;2023-02-28T03:50:18;87408.75;;;-1.48;51.17
21623;BME280;10973;46.706;12.340;2023-02-28T03:52:51;87404.19;;;-1.51;50.82
21623;BME280;10973;46.706;12.340;2023-02-28T03:55:21;87414.97;;;-1.49;51.21
21623;BME280;10973;46.706;12.340;2023-02-28T03:58:24;87398.59;;;-1.45;51.05
21623;BME280;10973;46.706;12.340;2023-02-28T04:01:23;87410.72;;;-1.45;51.05
21623;BME280;10973;46.706;12.340;2023-02-28T04:03:52;87414.41;;;-1.46;50.74
21623;BME280;10973;46.706;12.340;2023-02-28T04:06:22;87416.97;;;-1.46;50.76
21623;BME280;10973;46.706;12.340;2023-02-28T04:08:50;87421.97;;;-1.50;50.82
21623;BME280;10973;46.706;12.340;2023-02-28T04:11:25;87418.34;;;-1.49;51.10
21623;BME280;10973;46.706;12.340;2023-02-28T04:13:55;87418.78;;;-1.47;51.11
21623;BME280;10973;46.706;12.340;2023-02-28T04:16:23;87427.47;;;-1.42;51.32
21623;BME280;10973;46.706;12.340;2023-02-28T04:19:03;87427.75;;;-1.53;51.29
21623;BME280;10973;46.706;12.340;2023-02-28T04:21:33;87432.75;;;-1.48;51.05
21623;BME280;10973;46.706;12.340;2023-02-28T04:24:02;87424.88;;;-1.42;50.88
21623;BME280;10973;46.706;12.340;2023-02-28T04:26:31;87420.94;;;-1.40;51.07
21623;BME280;10973;46.706;12.340;2023-02-28T04:29:01;87428.09;;;-1.37;50.93
21623;BME280;10973;46.706;12.340;2023-02-28T04:31:28;87429.16;;;-1.38;51.09
21623;BME280;10973;46.706;12.340;2023-02-28T04:33:57;87435.69;;;-1.40;51.23
21623;BME280;10973;46.706;12.340;2023-02-28T04:36:25;87429.91;;;-1.37;51.29
21623;BME280;10973;46.706;12.340;2023-02-28T04:38:52;87428.56;;;-1.35;51.13
21623;BME280;10973;46.706;12.340;2023-02-28T04:41:20;87430.84;;;-1.33;51.25
21623;BME280;10973;46.706;12.340;2023-02-28T04:43:50;87433.88;;;-1.31;51.28
21623;BME280;10973;46.706;12.340;2023-02-28T04:46:18;87431.00;;;-1.30;51.42
21623;BME280;10973;46.706;12.340;2023-02-28T04:48:46;87437.53;;;-1.32;51.46
21623;BME280;10973;46.706;12.340;2023-02-28T04:51:15;87435.84;;;-1.37;51.55
21623;BME280;10973;46.706;12.340;2023-02-28T04:53:43;87436.94;;;-1.29;51.47
21623;BME280;10973;46.706;12.340;2023-02-28T04:56:16;87429.66;;;-1.27;51.43
21623;BME280;10973;46.706;12.340;2023-02-28T04:58:44;87437.41;;;-1.27;51.51
21623;BME280;10973;46.706;12.340;2023-02-28T05:01:27;87443.03;;;-1.25;51.19
21623;BME280;10973;46.706;12.340;2023-02-28T05:03:57;87440.28;;;-1.29;51.29
21623;BME280;10973;46.706;12.340;2023-02-28T05:06:28;87432.38;;;-1.32;51.48
21623;BME280;10973;46.706;12.340;2023-02-28T05:08:56;87430.25;;;-1.30;51.56
21623;BME280;10973;46.706;12.340;2023-02-28T05:11:29;87437.41;;;-1.27;51.51
21623;BME280;10973;46.706;12.340;2023-02-28T05:13:57;87430.13;;;-1.25;51.50
21623;BME280;10973;46.706;12.340;2023-02-28T05:16:25;87442.09;;;-1.29;51.69
21623;BME280;10973;46.706;12.340;2023-02-28T05:18:53;87432.41;;;-1.24;51.75
21623;BME280;10973;46.706;12.340;2023-02-28T05:21:31;87431.34;;;-1.23;51.99
21623;BME280;10973;46.706;12.340;2023-02-28T05:24:01;87444.56;;;-1.24;52.03
21623;BME280;10973;46.706;12.340;2023-02-28T05:26:29;87440.28;;;-1.20;51.79
21623;BME280;10973;46.706;12.340;2023-02-28T05:28:57;87447.31;;;-1.21;51.85
21623;BME280;10973;46.706;12.340;2023-02-28T05:31:25;87448.53;;;-1.18;51.96
21623;BME280;10973;46.706;12.340;2023-02-28T05:33:53;87455.06;;;-1.21;51.71
21623;BME280;10973;46.706;12.340;2023-02-28T05:36:21;87454.00;;;-1.20;51.74
21623;BME280;10973;46.706;12.340;2023-02-28T05:38:49;87451.88;;;-1.18;51.75
21623;BME280;10973;46.706;12.340;2023-02-28T05:41:18;87455.06;;;-1.21;52.09
21623;BME280;10973;46.706;12.340;2023-02-28T05:43:47;87446.84;;;-1.23;51.95
21623;BME280;10973;46.706;12.340;2023-02-28T05:46:15;87454.31;;;-1.21;52.16
21623;BME280;10973;46.706;12.340;2023-02-28T05:48:45;87456.56;;;-1.20;52.05
21623;BME280;10973;46.706;12.340;2023-02-28T05:51:13;87454.91;;;-1.16;52.00
21623;BME280;10973;46.706;12.340;2023-02-28T05:53:41;87458.56;;;-1.17;51.95
21623;BME280;10973;46.706;12.340;2023-02-28T05:56:08;87460.09;;;-1.16;51.95
21623;BME280;10973;46.706;12.340;2023-02-28T05:58:36;87454.91;;;-1.16;52.15
21623;BME280;10973;46.706;12.340;2023-02-28T06:01:32;87458.00;;;-1.14;52.10
21623;BME280;10973;46.706;12.340;2023-02-28T06:04:00;87459.94;;;-1.11;52.04
21623;BME280;10973;46.706;12.340;2023-02-28T06:06:28;87456.31;;;-1.10;51.94
21623;BME280;10973;46.706;12.340;2023-02-28T06:08:56;87454.34;;;-1.04;51.89
21623;BME280;10973;46.706;12.340;2023-02-28T06:11:24;87456.94;;;-1.04;51.67
21623;BME280;10973;46.706;12.340;2023-02-28T06:13:54;87454.97;;;-1.07;51.84
21623;BME280;10973;46.706;12.340;2023-02-28T06:16:22;87450.69;;;-1.12;51.80
21623;BME280;10973;46.706;12.340;2023-02-28T06:18:50;87455.69;;;-1.07;51.74
21623;BME280;10973;46.706;12.340;2023-02-28T06:21:18;87457.22;;;-1.06;51.70
21623;BME280;10973;46.706;12.340;2023-02-28T06:23:45;87456.94;;;-1.04;51.65
21623;BME280;10973;46.706;12.340;2023-02-28T06:26:13;87454.06;;;-1.03;51.63
21623;BME280;10973;46.706;12.340;2023-02-28T06:28:41;87451.28;;;-1.06;51.57
21623;BME280;10973;46.706;12.340;2023-02-28T06:31:15;87454.50;;;-1.01;51.35
21623;BME280;10973;46.706;12.340;2023-02-28T06:33:43;87460.47;;;-1.00;51.42
21623;BME280;10973;46.706;12.340;2023-02-28T06:36:12;87459.69;;;-1.01;51.30
21623;BME280;10973;46.706;12.340;2023-02-28T06:38:40;87460.28;;;-1.04;51.42
21623;BME280;10973;46.706;12.340;2023-02-28T06:41:08;87463.03;;;-1.00;51.72
21623;BME280;10973;46.706;12.340;2023-02-28T06:43:41;87466.53;;;-0.96;51.79
21623;BME280;10973;46.706;12.340;2023-02-28T06:46:12;87463.66;;;-0.95;51.55
21623;BME280;10973;46.706;12.340;2023-02-28T06:48:40;87464.41;;;-0.94;51.90
21623;BME280;10973;46.706;12.340;2023-02-28T06:51:11;87469.25;;;-1.01;51.61
21623;BME280;10973;46.706;12.340;2023-02-28T06:53:39;87470.63;;;-0.95;51.67
21623;BME280;10973;46.706;12.340;2023-02-28T06:56:09;87473.72;;;-0.93;51.72
21623;BME280;10973;46.706;12.340;2023-02-28T06:58:38;87482.06;;;-0.96;51.99
21623;BME280;10973;46.706;12.340;2023-02-28T07:01:07;87482.66;;;-0.91;52.01
21623;BME280;10973;46.706;12.340;2023-02-28T07:03:37;87483.09;;;-0.97;52.02
21623;BME280;10973;46.706;12.340;2023-02-28T07:06:06;87484.78;;;-1.01;52.28
21623;BME280;10973;46.706;12.340;2023-02-28T07:08:34;87481.88;;;-1.00;52.29
21623;BME280;10973;46.706;12.340;2023-02-28T07:11:03;87494.22;;;-0.97;51.99
21623;BME280;10973;46.706;12.340;2023-02-28T07:13:31;87493.31;;;-0.92;52.28
21623;BME280;10973;46.706;12.340;2023-02-28T07:16:05;87492.28;;;-0.91;52.12
21623;BME280;10973;46.706;12.340;2023-02-28T07:18:33;87496.53;;;-0.87;52.15
21623;BME280;10973;46.706;12.340;2023-02-28T07:21:06;87491.97;;;-0.81;52.09
21623;BME280;10973;46.706;12.340;2023-02-28T07:23:35;87491.84;;;-0.76;52.00
21623;BME280;10973;46.706;12.340;2023-02-28T07:26:03;87487.31;;;-0.70;51.82
21623;BME280;10973;46.706;12.340;2023-02-28T07:28:31;87486.09;;;-0.64;51.68
21623;BME280;10973;46.706;12.340;2023-02-28T07:31:04;87485.31;;;-0.65;51.63
21623;BME280;10973;46.706;12.340;2023-02-28T07:33:33;87501.75;;;-0.61;51.74
21623;BME280;10973;46.706;12.340;2023-02-28T07:36:06;87491.59;;;-0.57;51.63
21623;BME280;10973;46.706;12.340;2023-02-28T07:38:36;87493.25;;;-0.53;51.34
21623;BME280;10973;46.706;12.340;2023-02-28T07:41:04;87490.81;;;-0.49;51.11
21623;BME280;10973;46.706;12.340;2023-02-28T07:43:32;87494.31;;;-0.45;51.33
21623;BME280;10973;46.706;12.340;2023-02-28T07:46:09;87491.59;;;-0.49;51.19
21623;BME280;10973;46.706;12.340;2023-02-28T07:48:37;87485.81;;;-0.46;50.97
21623;BME280;10973;46.706;12.340;2023-02-28T07:51:06;87494.94;;;-0.40;50.99
21623;BME280;10973;46.706;12.340;2023-02-28T07:53:33;87495.09;;;-0.36;50.78
21623;BME280;10973;46.706;12.340;2023-02-28T07:56:02;87491.31;;;-0.39;50.77
21623;BME280;10973;46.706;12.340;2023-02-28T07:58:30;87490.69;;;-0.36;50.80
21623;BME280;10973;46.706;12.340;2023-02-28T08:01:06;87489.50;;;-0.30;50.74
21623;BME280;10973;46.706;12.340;2023-02-28T08:03:33;87491.16;;;-0.25;50.64
21623;BME280;10973;46.706;12.340;2023-02-28T08:06:03;87485.69;;;-0.24;50.76
21623;BME280;10973;46.706;12.340;2023-02-28T08:08:31;87490.84;;;-0.15;50.46
21623;BME280;10973;46.706;12.340;2023-02-28T08:11:02;87482.63;;;-0.09;50.30
21623;BME280;10973;46.706;12.340;2023-02-28T08:13:31;87481.41;;;-0.03;50.02
21623;BME280;10973;46.706;12.340;2023-02-28T08:16:00;87478.81;;;0.06;49.75
21623;BME280;10973;46.706;12.340;2023-02-28T08:18:29;87485.84;;;-0.03;49.58
21623;BME280;10973;46.706;12.340;2023-02-28T08:20:56;87480.94;;;0.04;49.85
21623;BME280;10973;46.706;12.340;2023-02-28T08:23:24;87486.44;;;0.11;49.84
21623;BME280;10973;46.706;12.340;2023-02-28T08:25:56;87487.81;;;0.09;49.05
21623;BME280;10973;46.706;12.340;2023-02-28T08:28:24;87496.16;;;0.14;49.08
21623;BME280;10973;46.706;12.340;2023-02-28T08:30:54;87495.09;;;0.24;49.13
21623;BME280;10973;46.706;12.340;2023-02-28T08:33:22;87496.94;;;0.32;48.93
21623;BME280;10973;46.706;12.340;2023-02-28T08:35:53;87493.41;;;0.28;48.97
21623;BME280;10973;46.706;12.340;2023-02-28T08:38:21;87492.81;;;0.31;48.72
21623;BME280;10973;46.706;12.340;2023-02-28T08:40:49;87499.66;;;0.35;48.51
21623;BME280;10973;46.706;12.340;2023-02-28T08:43:17;87494.78;;;0.34;48.19
21623;BME280;10973;46.706;12.340;2023-02-28T08:45:44;87500.56;;;0.39;48.30
21623;BME280;10973;46.706;12.340;2023-02-28T08:48:12;87500.09;;;0.46;48.15
21623;BME280;10973;46.706;12.340;2023-02-28T08:50:39;87504.81;;;0.44;48.15
21623;BME280;10973;46.706;12.340;2023-02-28T08:53:07;87498.88;;;0.52;48.26
21623;BME280;10973;46.706;12.340;2023-02-28T08:55:35;87500.53;;;0.56;48.08
21623;BME280;10973;46.706;12.340;2023-02-28T08:58:03;87505.72;;;0.65;48.28
21623;BME280;10973;46.706;12.340;2023-02-28T09:00:30;87505.25;;;0.63;47.63
21623;BME280;10973;46.706;12.340;2023-02-28T09:02:58;87507.06;;;0.71;47.78
21623;BME280;10973;46.706;12.340;2023-02-28T09:05:25;87500.66;;;0.68;47.44
21623;BME280;10973;46.706;12.340;2023-02-28T09:07:53;87507.88;;;0.54;47.72
21623;BME280;10973;46.706;12.340;2023-02-28T09:10:21;87507.84;;;0.63;47.81
21623;BME280;10973;46.706;12.340;2023-02-28T09:12:48;87512.72;;;0.64;47.45
21623;BME280;10973;46.706;12.340;2023-02-28T09:15:16;87513.78;;;0.72;47.52
21623;BME280;10973;46.706;12.340;2023-02-28T09:17:44;87510.53;;;0.75;47.36
21623;BME280;10973;46.706;12.340;2023-02-28T09:20:15;87511.75;;;0.78;47.43
21623;BME280;10973;46.706;12.340;2023-02-28T09:22:42;87513.72;;;0.89;47.43
21623;BME280;10973;46.706;12.340;2023-02-28T09:25:10;87514.81;;;0.80;47.15
21623;BME280;10973;46.706;12.340;2023-02-28T09:27:37;87513.72;;;0.89;46.87
21623;BME280;10973;46.706;12.340;2023-02-28T09:30:06;87513.53;;;1.03;46.85
21623;BME280;10973;46.706;12.340;2023-02-28T09:32:34;87510.28;;;1.14;46.74
21623;BME280;10973;46.706;12.340;2023-02-28T09:35:01;87514.69;;;1.22;46.77
21623;BME280;10973;46.706;12.340;2023-02-28T09:37:29;87513.56;;;1.32;46.73
21623;BME280;10973;46.706;12.340;2023-02-28T09:39:57;87509.41;;;1.39;46.33
21623;BME280;10973;46.706;12.340;2023-02-28T09:42:31;87509.69;;;1.47;45.91
21623;BME280;10973;46.706;12.340;2023-02-28T09:45:02;87508.84;;;1.55;45.23
21623;BME280;10973;46.706;12.340;2023-02-28T09:47:43;87506.53;;;1.62;45.41
21623;BME280;10973;46.706;12.340;2023-02-28T09:50:40;87518.13;;;1.64;45.72
21623;BME280;10973;46.706;12.340;2023-02-28T09:53:33;87519.41;;;1.58;45.41
21623;BME280;10973;46.706;12.340;2023-02-28T09:58:40;87521.88;;;1.75;45.03
21623;BME280;10973;46.706;12.340;2023-02-28T10:06:51;87525.53;;;2.03;44.44
21623;BME280;10973;46.706;12.340;2023-02-28T10:09:26;87526.13;;;2.09;44.10
21623;BME280;10973;46.706;12.340;2023-02-28T10:12:02;87522.25;;;2.15;44.38
21623;BME280;10973;46.706;12.340;2023-02-28T10:14:33;87521.38;;;2.32;44.41
21623;BME280;10973;46.706;12.340;2023-02-28T10:17:37;87515.75;;;2.42;43.87
21623;BME280;10973;46.706;12.340;2023-02-28T10:20:23;87513.41;;;2.49;43.65
21623;BME280;10973;46.706;12.340;2023-02-28T10:23:42;87517.91;;;2.60;43.88
21623;BME280;10973;46.706;12.340;2023-02-28T10:26:16;87520.56;;;2.72;43.72
21623;BME280;10973;46.706;12.340;2023-02-28T10:28:44;87517.19;;;2.72;43.47
21623;BME280;10973;46.706;12.340;2023-02-28T10:31:18;87512.53;;;2.77;42.79
21623;BME280;10973;46.706;12.340;2023-02-28T10:33:47;87509.88;;;2.86;43.31
21623;BME280;10973;46.706;12.340;2023-02-28T10:36:19;87512.69;;;2.93;42.83
21623;BME280;10973;46.706;12.340;2023-02-28T10:38:47;87513.56;;;2.97;42.45
21623;BME280;10973;46.706;12.340;2023-02-28T10:41:36;87503.75;;;2.82;41.77
21623;BME280;10973;46.706;12.340;2023-02-28T10:44:23;87514.38;;;2.77;42.70
21623;BME280;10973;46.706;12.340;2023-02-28T10:46:51;87506.06;;;2.83;42.70
21623;BME280;10973;46.706;12.340;2023-02-28T10:49:25;87511.41;;;2.99;42.48
21623;BME280;10973;46.706;12.340;2023-02-28T10:52:00;87515.13;;;3.10;42.57
21623;BME280;10973;46.706;12.340;2023-02-28T10:54:35;87511.78;;;3.22;42.15
21623;BME280;10973;46.706;12.340;2023-02-28T10:57:21;87506.38;;;3.27;41.71
21623;BME280;10973;46.706;12.340;2023-02-28T11:02:42;87508.00;;;3.43;42.20
21623;BME280;10973;46.706;12.340;2023-02-28T11:05:30;87502.47;;;3.57;41.45
21623;BME280;10973;46.706;12.340;2023-02-28T11:08:15;87499.97;;;3.73;41.14
21623;BME280;10973;46.706;12.340;2023-02-28T11:10:56;87499.97;;;3.73;41.26
21623;BME280;10973;46.706;12.340;2023-02-28T11:13:35;87487.69;;;3.85;40.92
21623;BME280;10973;46.706;12.340;2023-02-28T11:16:10;87497.78;;;3.99;40.85
21623;BME280;10973;46.706;12.340;2023-02-28T11:18:54;87486.03;;;4.05;39.87
21623;BME280;10973;46.706;12.340;2023-02-28T11:21:53;87483.50;;;4.20;39.86
21623;BME280;10973;46.706;12.340;2023-02-28T11:24:31;87485.00;;;4.33;40.09
21623;BME280;10973;46.706;12.340;2023-02-28T11:27:01;87480.84;;;4.45;39.55
21623;BME280;10973;46.706;12.340;2023-02-28T11:29:32;87470.16;;;4.77;39.67
21623;BME280;10973;46.706;12.340;2023-02-28T11:32:12;87473.44;;;5.49;38.42
21623;BME280;10973;46.706;12.340;2023-02-28T11:34:42;87464.66;;;6.58;36.64
21623;BME280;10973;46.706;12.340;2023-02-28T11:37:18;87461.50;;;8.23;34.94
21623;BME280;10973;46.706;12.340;2023-02-28T11:39:46;87448.00;;;9.83;31.30
21623;BME280;10973;46.706;12.340;2023-02-28T11:48:13;87444.47;;;12.94;26.44
21623;BME280;10973;46.706;12.340;2023-02-28T11:56:37;87434.84;;;13.49;25.47
21623;BME280;10973;46.706;12.340;2023-02-28T11:59:27;87436.06;;;14.07;24.68
21623;BME280;10973;46.706;12.340;2023-02-28T12:10:01;87440.56;;;14.13;24.01
21623;BME280;10973;46.706;12.340;2023-02-28T12:20:51;87430.28;;;14.22;23.30
21623;BME280;10973;46.706;12.340;2023-02-28T12:26:43;87427.06;;;13.94;23.71
21623;BME280;10973;46.706;12.340;2023-02-28T12:29:32;87427.03;;;13.18;24.12
21623;BME280;10973;46.706;12.340;2023-02-28T12:32:33;87417.38;;;12.23;24.86
21623;BME280;10973;46.706;12.340;2023-02-28T12:35:17;87427.44;;;11.33;26.35
21623;BME280;10973;46.706;12.340;2023-02-28T12:38:03;87426.69;;;10.57;26.90
21623;BME280;10973;46.706;12.340;2023-02-28T12:41:01;87434.22;;;10.04;27.90
21623;BME280;10973;46.706;12.340;2023-02-28T12:43:43;87422.94;;;9.56;29.02
21623;BME280;10973;46.706;12.340;2023-02-28T12:46:26;87420.84;;;8.99;29.61
21623;BME280;10973;46.706;12.340;2023-02-28T12:48:57;87419.72;;;8.37;30.76
21623;BME280;10973;46.706;12.340;2023-02-28T12:51:27;87423.22;;;7.69;31.54
21623;BME280;10973;46.706;12.340;2023-02-28T12:54:29;87426.19;;;7.45;32.28
21623;BME280;10973;46.706;12.340;2023-02-28T12:57:06;87408.50;;;7.39;33.12
21623;BME280;10973;46.706;12.340;2023-02-28T12:59:57;87418.28;;;7.42;32.86
21623;BME280;10973;46.706;12.340;2023-02-28T13:02:59;87415.94;;;7.37;32.61
21623;BME280;10973;46.706;12.340;2023-02-28T13:10:55;87403.97;;;7.58;32.90
21623;BME280;10973;46.706;12.340;2023-02-28T13:13:26;87401.97;;;7.52;32.87
21623;BME280;10973;46.706;12.340;2023-02-28T13:16:09;87399.16;;;7.64;32.88
21623;BME280;10973;46.706;12.340;2023-02-28T13:18:43;87398.34;;;7.60;33.00
21623;BME280;10973;46.706;12.340;2023-02-28T13:21:29;87406.22;;;7.60;32.51
21623;BME280;10973;46.706;12.340;2023-02-28T13:24:05;87404.13;;;7.69;32.83
21623;BME280;10973;46.706;12.340;2023-02-28T13:34:30;87389.16;;;8.51;32.01
21623;BME280;10973;46.706;12.340;2023-02-28T13:39:54;87382.72;;;8.79;32.01
21623;BME280;10973;46.706;12.340;2023-02-28T13:47:51;87371.84;;;10.08;29.98
21623;BME280;10973;46.706;12.340;2023-02-28T13:56:07;87368.81;;;10.71;28.45
21623;BME280;10973;46.706;12.340;2023-02-28T14:02:36;87367.72;;;10.83;28.58
21623;BME280;10973;46.706;12.340;2023-02-28T14:05:21;87360.25;;;10.99;28.65
21623;BME280;10973;46.706;12.340;2023-02-28T14:07:54;87359.81;;;10.86;28.34
21623;BME280;10973;46.706;12.340;2023-02-28T14:10:31;87366.19;;;10.82;28.88
21623;BME280;10973;46.706;12.340;2023-02-28T14:16:42;87363.84;;;10.59;28.45
21623;BME280;10973;46.706;12.340;2023-02-28T14:19:25;87356.59;;;10.35;29.19
21623;BME280;10973;46.706;12.340;2023-02-28T14:34:10;87354.53;;;10.83;29.19
21623;BME280;10973;46.706;12.340;2023-02-28T14:36:36;87351.56;;;11.02;28.86
21623;BME280;10973;46.706;12.340;2023-02-28T14:39:25;87349.00;;;11.12;28.47
21623;BME280;10973;46.706;12.340;2023-02-28T14:41:54;87348.97;;;11.16;28.31
21623;BME280;10973;46.706;12.340;2023-02-28T14:44:27;87348.22;;;11.15;28.22
21623;BME280;10973;46.706;12.340;2023-02-28T14:47:00;87355.28;;;10.80;28.41
21623;BME280;10973;46.706;12.340;2023-02-28T14:49:47;87353.69;;;10.61;28.65
21623;BME280;10973;46.706;12.340;2023-02-28T14:52:30;87356.28;;;10.47;28.96
21623;BME280;10973;46.706;12.340;2023-02-28T14:55:04;87356.16;;;10.29;28.74
21623;BME280;10973;46.706;12.340;2023-02-28T14:57:41;87354.69;;;10.32;29.21
21623;BME280;10973;46.706;12.340;2023-02-28T15:00:27;87359.91;;;10.25;29.47
21623;BME280;10973;46.706;12.340;2023-02-28T15:02:57;87359.47;;;10.16;29.09
21623;BME280;10973;46.706;12.340;2023-02-28T15:05:34;87368.91;;;10.17;29.27
21623;BME280;10973;46.706;12.340;2023-02-28T15:08:22;87363.53;;;9.52;29.54
21623;BME280;10973;46.706;12.340;2023-02-28T15:11:16;87367.28;;;8.40;31.25
21623;BME280;10973;46.706;12.340;2023-02-28T15:13:48;87360.53;;;7.87;32.39
21623;BME280;10973;46.706;12.340;2023-02-28T15:16:25;87359.84;;;7.41;33.53
21623;BME280;10973;46.706;12.340;2023-02-28T15:19:26;87374.38;;;6.71;34.39
21623;BME280;10973;46.706;12.340;2023-02-28T15:22:12;87378.03;;;6.09;35.56
21623;BME280;10973;46.706;12.340;2023-02-28T15:24:50;87383.44;;;5.31;37.10
21623;BME280;10973;46.706;12.340;2023-02-28T15:27:27;87373.41;;;4.86;38.15
21623;BME280;10973;46.706;12.340;2023-02-28T15:29:59;87374.97;;;4.59;38.87
21623;BME280;10973;46.706;12.340;2023-02-28T15:32:32;87383.56;;;4.60;39.04
21623;BME280;10973;46.706;12.340;2023-02-28T15:40:44;87372.91;;;4.09;40.05
21623;BME280;10973;46.706;12.340;2023-02-28T15:45:51;87380.88;;;4.01;40.49
21623;BME280;10973;46.706;12.340;2023-02-28T15:48:28;87383.16;;;4.02;40.54
21623;BME280;10973;46.706;12.340;2023-02-28T15:51:02;87380.31;;;4.07;40.69